Flight Track Log - Related Links

Times and Time Zones

All times are in EST time to prevent confusion due to time zone crossing. See the EJA831 flight status page for this flight to view local times or setup timezone preferences in your user account.

Time Position Orientation Groundspeed Altitude Reporting Facility
EST Latitude Longitude Course Direction KTS MPH feet Rate Location/Type
Mon 03:29:56 PM 38.3542 -81.6228 218° Southwest 202 232 3,300  Level Indianapolis Center
Mon 03:30:58 PM 38.3036 -81.6703 216° Southwest 224 258 4,600 1,742 Climbing Indianapolis Center
Mon 03:32:00 PM 38.2489 -81.7233 217° Southwest 241 277 6,900 1,935 Climbing Indianapolis Center
Mon 03:33:02 PM 38.1981 -81.7722 217° Southwest 229 264 8,600 1,790 Climbing Indianapolis Center
Mon 03:34:04 PM 38.1453 -81.8217 216° Southwest 232 267 10,600 2,341 Climbing Indianapolis Center
Mon 03:35:00 PM 38.0304 -81.9872 218° Southwest  Level Estimated
Mon 03:35:05 PM 38.0900 -81.8750 217° Southwest 247 284 13,400  Level Indianapolis Center
Mon 03:36:07 PM 38.0244 -81.9389 218° Southwest 247 284 15,600 2,081 Climbing Indianapolis Center
Mon 03:37:09 PM 37.9628 -81.9975 217° Southwest 271 312 17,700 1,597 Climbing Indianapolis Center
Mon 03:38:11 PM 37.9039 -82.0528 217° Southwest 265 305 18,900 1,548 Climbing Indianapolis Center
Mon 03:39:13 PM 37.8417 -82.1122 217° Southwest 278 320 20,900 1,887 Climbing Indianapolis Center
Mon 03:40:15 PM 37.7775 -82.1708 216° Southwest 284 327 22,800 1,805 Climbing Indianapolis Center
Mon 03:41:16 PM 37.7125 -82.2325 217° Southwest 290 334 24,600 1,561 Climbing Indianapolis Center
Mon 03:42:18 PM 37.6375 -82.3044 217° Southwest 290 334 26,000 677 Climbing Indianapolis Center
Mon 03:43:20 PM 37.5697 -82.3681 217° Southwest 301 346 26,000  Level Indianapolis Center
Mon 03:44:22 PM 37.4983 -82.4367 217° Southwest 318 366 26,000  Level Indianapolis Center
Mon 03:45:24 PM 37.4281 -82.5036 217° Southwest 317 365 26,000 -341 Level Indianapolis Center
Mon 03:46:25 PM 37.3586 -82.5675 216° Southwest 310 357 25,300 -1,073 Descending Indianapolis Center
Mon 03:47:27 PM 37.2903 -82.6314 217° Southwest 306 352 23,800 -1,548 Descending Indianapolis Center
Mon 03:48:29 PM 37.2117 -82.7053 217° Southwest 303 349 22,100 -878 Descending Indianapolis Center
Mon 03:49:30 PM 37.1422 -82.7683 216° Southwest 306 352 22,000 -49 Descending Indianapolis Center
Mon 03:50:32 PM 37.0758 -82.8303 217° Southwest 300 345 22,000  Level Indianapolis Center
Mon 03:51:34 PM 37.0111 -82.8911 217° Southwest 295 339 22,000  Level Indianapolis Center
Mon 03:52:36 PM 36.9456 -82.9522 217° Southwest 300 345 22,000  Level Indianapolis Center
Mon 03:53:37 PM 36.8681 -83.0231 216° Southwest 301 346 22,000  Level Indianapolis Center
Mon 03:54:39 PM 36.8019 -83.0828 216° Southwest 297 342 22,000  Level Indianapolis Center
Mon 03:55:41 PM 36.7350 -83.1444 216° Southwest 299 344 22,000  Level Indianapolis Center
Mon 03:56:43 PM 36.6736 -83.2119 221° Southwest 296 341 22,000  Level Indianapolis Center
Mon 03:57:44 PM 36.6172 -83.2836 226° Southwest 292 336 22,000  Level Indianapolis Center
Mon 03:58:46 PM 36.5594 -83.3556 225° Southwest 294 338 22,000  Level Indianapolis Center
Mon 03:59:48 PM 36.4931 -83.4386 225° Southwest 291 335 22,000  Level Indianapolis Center
Mon 04:00:49 PM 36.4358 -83.5097 225° Southwest 291 335 22,000  Level Indianapolis Center
Mon 04:01:51 PM 36.3706 -83.5908 225° Southwest 310 357 22,000  Level Indianapolis Center
Mon 04:02:53 PM 36.3081 -83.6667 224° Southwest 314 361 22,000  Level Indianapolis Center
Mon 04:03:55 PM 36.2475 -83.7411 225° Southwest 308 354 22,000  Level Indianapolis Center
Mon 04:04:56 PM 36.1878 -83.8150 225° Southwest 305 351 22,000  Level Indianapolis Center
Mon 04:06:25 PM 36.1000 -83.9256 226° Southwest 302 348 22,000  Level Atlanta Center
Mon 04:07:25 PM 36.0394 -83.9978 224° Southwest 302 348 22,000  Level Atlanta Center
Mon 04:08:25 PM 35.9789 -84.0722 225° Southwest 302 348 22,000  Level Atlanta Center
Mon 04:09:25 PM 35.9186 -84.1439 224° Southwest 302 348 22,000  Level Atlanta Center
Mon 04:10:25 PM 35.8578 -84.2181 225° Southwest 302 348 22,000 -300 Level Atlanta Center
Mon 04:11:25 PM 35.7972 -84.2922 225° Southwest 302 348 21,400 -1,000 Descending Atlanta Center
Mon 04:12:25 PM 35.7408 -84.3636 226° Southwest 302 348 20,000 -1,350 Descending Atlanta Center
Mon 04:13:25 PM 35.6800 -84.4350 224° Southwest 302 348 18,700 -1,250 Descending Atlanta Center
Mon 04:14:25 PM 35.6214 -84.5036 224° Southwest 302 348 17,500 -1,250 Descending Atlanta Center
Mon 04:15:25 PM 35.5628 -84.5747 225° Southwest 302 348 16,200 -1,300 Descending Atlanta Center
Mon 04:16:25 PM 35.5039 -84.6458 225° Southwest 302 348 14,900 -1,182 Descending Atlanta Center
Mon 04:17:37 PM 35.4472 -84.7144 225° Southwest 302 348 13,600 -1,318 Descending Atlanta Center
Mon 04:18:37 PM 35.3800 -84.7978 225° Southwest 302 348 12,000 -2,150 Descending Atlanta Center
Mon 04:19:37 PM 35.3275 -84.8583 223° Southwest 273 314 9,300 -500 Descending Atlanta Center
Mon 04:20:37 PM 35.2833 -84.9192 228° Southwest 252 290 11,000 -3,100 Climbing Atlanta Center
Mon 04:21:37 PM 35.2472 -84.9925 239° Southwest 252 290 3,100 -4,000 Descending Atlanta Center
Mon 04:22:37 PM 35.2156 -85.0583 240° Southwest 240 276 3,000 -50 Descending Atlanta Center
Mon 04:23:37 PM 35.1814 -85.1264 238° Southwest 235 270 3,000  Level Atlanta Center
Mon 04:24:37 PM 35.1436 -85.1664 221° Southwest 213 245 3,000  Level Atlanta Center
Mon 04:26:00 PM 35.0333 -85.2000 231° Southwest  Level FlightAware Approximate
Mon 04:33:00 PM 35.0352 -85.2036 231° Southwest  Level Estimated
Mon 04:34:00 PM 35.0333 -85.2000 231° Southwest  Level FlightAware Approximate
Mon 04:35:00 PM 35.0352 -85.2036 231° Southwest  Level Estimated

Login

Don't have an account? Register now (free) for customized features, flight alerts, and more!